createdAt,value
2022-12-14T00:01:48.819Z,-9.11
2022-12-14T00:04:17.287Z,-9.09
2022-12-14T00:06:44.682Z,-9.07
2022-12-14T00:09:11.782Z,-9.06
2022-12-14T00:11:38.819Z,-9.06
2022-12-14T00:14:09.052Z,-9.04
2022-12-14T00:16:36.844Z,-9.04
2022-12-14T00:19:05.543Z,-9.04
2022-12-14T00:21:33.666Z,-9.06
2022-12-14T00:24:00.866Z,-9.09
2022-12-14T00:26:32.678Z,-9.09
2022-12-14T00:29:01.919Z,-9.04
2022-12-14T00:31:31.140Z,-8.98
2022-12-14T00:33:58.822Z,-8.85
2022-12-14T00:36:25.840Z,-8.76
2022-12-14T00:38:52.918Z,-8.71
2022-12-14T00:41:20.048Z,-8.68
2022-12-14T00:43:49.403Z,-8.71
2022-12-14T00:46:18.119Z,-8.66
2022-12-14T00:48:45.755Z,-8.67
2022-12-14T00:51:14.827Z,-8.66
2022-12-14T00:53:44.545Z,-8.64
2022-12-14T00:56:12.104Z,-8.59
2022-12-14T00:58:39.098Z,-8.53
2022-12-14T01:01:08.611Z,-8.47
2022-12-14T01:03:36.173Z,-8.41
2022-12-14T01:06:03.951Z,-8.37
2022-12-14T01:08:35.738Z,-8.33
2022-12-14T01:11:07.680Z,-8.28
2022-12-14T01:13:35.533Z,-8.20
2022-12-14T01:16:09.079Z,-8.11
2022-12-14T01:18:37.590Z,-8.18
2022-12-14T01:21:13.063Z,-8.08
2022-12-14T01:23:40.727Z,-8.08
2022-12-14T01:26:08.082Z,-8.09
2022-12-14T01:28:35.981Z,-8.09
2022-12-14T01:31:11.277Z,-8.06
2022-12-14T01:33:38.707Z,-7.99
2022-12-14T01:36:11.555Z,-7.88
2022-12-14T01:38:39.491Z,-7.81
2022-12-14T01:41:07.199Z,-7.75
2022-12-14T01:43:54.216Z,-7.76
2022-12-14T01:46:28.337Z,-7.73
2022-12-14T01:49:11.944Z,-7.71
2022-12-14T01:51:42.788Z,-7.59
2022-12-14T01:54:13.004Z,-7.52
2022-12-14T01:56:44.789Z,-7.48
2022-12-14T01:59:21.326Z,-7.41
2022-12-14T02:01:49.251Z,-7.39
2022-12-14T02:04:18.647Z,-7.35
2022-12-14T02:06:49.046Z,-7.33
2022-12-14T02:09:33.502Z,-7.32
2022-12-14T02:12:16.153Z,-7.31
2022-12-14T02:14:44.376Z,-7.29
2022-12-14T02:17:13.307Z,-7.28
2022-12-14T02:19:43.904Z,-7.29
2022-12-14T02:22:38.904Z,-7.30
2022-12-14T02:25:44.058Z,-7.27
2022-12-14T02:28:31.650Z,-7.27
2022-12-14T02:31:25.160Z,-7.23
2022-12-14T02:34:09.813Z,-7.19
2022-12-14T02:36:55.789Z,-7.19
2022-12-14T02:39:35.130Z,-7.23
2022-12-14T02:42:15.286Z,-7.23
2022-12-14T02:45:02.081Z,-7.24
2022-12-14T02:47:45.970Z,-7.27
2022-12-14T02:50:39.643Z,-7.29
2022-12-14T02:53:34.869Z,-7.27
2022-12-14T02:56:07.071Z,-7.20
2022-12-14T02:58:39.710Z,-7.20
2022-12-14T03:01:12.752Z,-7.20
2022-12-14T03:03:41.482Z,-7.19
2022-12-14T03:06:26.223Z,-7.21
2022-12-14T03:08:58.315Z,-7.22
2022-12-14T03:11:34.985Z,-7.20
2022-12-14T03:14:12.743Z,-7.17
2022-12-14T03:16:54.969Z,-7.16
2022-12-14T03:19:32.476Z,-7.13
2022-12-14T03:22:05.969Z,-7.14
2022-12-14T03:24:40.929Z,-7.11
2022-12-14T03:27:17.720Z,-7.13
2022-12-14T03:29:58.511Z,-7.08
2022-12-14T03:32:30.271Z,-7.10
2022-12-14T03:35:04.395Z,-7.08
2022-12-14T03:37:40.895Z,-7.10
2022-12-14T03:40:11.279Z,-7.08
2022-12-14T03:42:59.518Z,-7.10
2022-12-14T03:45:48.732Z,-7.08
2022-12-14T03:48:39.505Z,-7.07
2022-12-14T03:51:36.386Z,-7.05
2022-12-14T03:54:20.386Z,-7.07
2022-12-14T03:57:08.340Z,-7.08
2022-12-14T03:59:54.171Z,-7.05
2022-12-14T04:02:46.653Z,-7.05
2022-12-14T04:05:22.526Z,-7.06
2022-12-14T04:08:03.564Z,-7.04
2022-12-14T04:10:58.238Z,-7.02
2022-12-14T04:13:51.986Z,-7.05
2022-12-14T04:16:41.795Z,-7.04
2022-12-14T04:19:16.682Z,-7.05
2022-12-14T04:21:55.416Z,-7.09
2022-12-14T04:24:51.742Z,-7.11
2022-12-14T04:27:35.165Z,-7.13
2022-12-14T04:30:04.012Z,-7.12
2022-12-14T04:32:40.190Z,-7.12
2022-12-14T04:35:15.297Z,-7.12
2022-12-14T04:37:48.852Z,-7.09
2022-12-14T04:40:22.099Z,-7.12
2022-12-14T04:43:03.434Z,-7.08
2022-12-14T04:46:02.188Z,-7.11
2022-12-14T04:48:37.686Z,-7.08
2022-12-14T04:51:38.862Z,-7.11
2022-12-14T04:54:14.428Z,-7.10
2022-12-14T04:56:52.836Z,-7.10
2022-12-14T04:59:20.051Z,-7.08
2022-12-14T05:01:56.159Z,-7.05
2022-12-14T05:04:56.569Z,-7.06
2022-12-14T05:07:49.018Z,-7.06
2022-12-14T05:10:27.532Z,-7.04
2022-12-14T05:13:14.761Z,-7.05
2022-12-14T05:15:49.563Z,-7.05
2022-12-14T05:18:17.431Z,-7.06
2022-12-14T05:20:46.655Z,-7.03
2022-12-14T05:23:14.198Z,-7.01
2022-12-14T05:25:41.380Z,-6.99
2022-12-14T05:28:10.492Z,-6.98
2022-12-14T05:30:37.777Z,-6.97
2022-12-14T05:33:05.265Z,-7.01
2022-12-14T05:35:32.443Z,-6.97
2022-12-14T05:38:00.079Z,-6.98
2022-12-14T05:40:27.146Z,-6.98
2022-12-14T05:43:04.774Z,-6.94
2022-12-14T05:45:31.989Z,-6.93
2022-12-14T05:47:59.181Z,-6.95
2022-12-14T05:50:26.403Z,-6.93
2022-12-14T05:52:55.650Z,-6.92
2022-12-14T05:55:22.748Z,-6.85
2022-12-14T05:57:49.897Z,-6.85
2022-12-14T06:00:17.219Z,-6.83
2022-12-14T06:02:44.811Z,-6.82
2022-12-14T06:05:11.853Z,-6.73
2022-12-14T06:07:39.696Z,-6.72
2022-12-14T06:10:07.205Z,-6.72
2022-12-14T06:12:34.313Z,-6.76
2022-12-14T06:15:01.400Z,-6.71
2022-12-14T06:17:31.851Z,-6.71
2022-12-14T06:20:05.438Z,-6.71
2022-12-14T06:22:32.814Z,-6.70
2022-12-14T06:24:59.998Z,-6.72
2022-12-14T06:27:27.164Z,-6.71
2022-12-14T06:29:54.244Z,-6.66
2022-12-14T06:32:21.536Z,-6.66
2022-12-14T06:34:48.653Z,-6.64
2022-12-14T06:37:16.097Z,-6.63
2022-12-14T06:39:43.185Z,-6.59
2022-12-14T06:42:10.892Z,-6.60
2022-12-14T06:44:37.996Z,-6.60
2022-12-14T06:47:07.886Z,-6.59
2022-12-14T06:49:35.472Z,-6.58
2022-12-14T06:52:02.587Z,-6.55
2022-12-14T06:54:30.346Z,-6.52
2022-12-14T06:56:57.484Z,-6.48
2022-12-14T06:59:24.564Z,-6.48
2022-12-14T07:01:51.720Z,-6.45
2022-12-14T07:04:21.243Z,-6.41
2022-12-14T07:06:48.662Z,-6.43
2022-12-14T07:09:15.742Z,-6.42
2022-12-14T07:11:43.188Z,-6.39
2022-12-14T07:14:16.313Z,-6.36
2022-12-14T07:16:47.793Z,-6.34
2022-12-14T07:19:16.185Z,-6.32
2022-12-14T07:21:43.324Z,-6.32
2022-12-14T07:24:10.555Z,-6.27
2022-12-14T07:26:37.992Z,-6.30
2022-12-14T07:29:05.138Z,-6.27
2022-12-14T07:31:32.515Z,-6.29
2022-12-14T07:34:00.315Z,-6.27
2022-12-14T07:36:28.696Z,-6.20
2022-12-14T07:38:56.501Z,-6.22
2022-12-14T07:41:30.877Z,-6.20
2022-12-14T07:44:00.701Z,-6.15
2022-12-14T07:46:30.405Z,-6.16
2022-12-14T07:48:59.727Z,-6.13
2022-12-14T07:51:32.711Z,-6.09
2022-12-14T07:54:00.749Z,-6.09
2022-12-14T07:56:30.980Z,-6.03
2022-12-14T07:59:01.311Z,-6.01
2022-12-14T08:01:33.966Z,-6.01
2022-12-14T08:04:13.231Z,-6.00
2022-12-14T08:06:41.094Z,-5.93
2022-12-14T08:09:09.340Z,-5.90
2022-12-14T08:11:36.738Z,-5.82
2022-12-14T08:14:07.808Z,-5.82
2022-12-14T08:16:34.969Z,-5.77
2022-12-14T08:19:02.417Z,-5.65
2022-12-14T08:21:29.907Z,-5.61
2022-12-14T08:23:57.720Z,-5.61
2022-12-14T08:26:30.164Z,-5.55
2022-12-14T08:29:00.569Z,-5.49
2022-12-14T08:31:30.839Z,-5.37
2022-12-14T08:33:59.630Z,-5.29
2022-12-14T08:36:29.712Z,-5.32
2022-12-14T08:38:58.733Z,-5.38
2022-12-14T08:41:27.256Z,-5.40
2022-12-14T08:43:56.710Z,-5.34
2022-12-14T08:46:24.966Z,-5.24
2022-12-14T08:48:53.754Z,-5.22
2022-12-14T08:51:22.281Z,-5.16
2022-12-14T08:53:49.713Z,-5.15
2022-12-14T08:56:19.742Z,-5.11
2022-12-14T08:58:47.225Z,-5.08
2022-12-14T09:01:17.514Z,-5.02
2022-12-14T09:03:46.434Z,-4.95
2022-12-14T09:06:19.194Z,-4.89
2022-12-14T09:08:49.966Z,-4.75
2022-12-14T09:11:19.331Z,-4.77
2022-12-14T09:13:53.599Z,-4.73
2022-12-14T09:16:27.763Z,-4.73
2022-12-14T09:18:58.893Z,-4.66
2022-12-14T09:21:31.232Z,-4.56
2022-12-14T09:23:59.804Z,-4.61
2022-12-14T09:26:29.748Z,-4.57
2022-12-14T09:28:58.083Z,-4.54
2022-12-14T09:31:26.783Z,-4.46
2022-12-14T09:33:55.037Z,-4.57
2022-12-14T09:36:24.865Z,-4.49
2022-12-14T09:38:52.790Z,-4.46
2022-12-14T09:41:44.714Z,-4.44
2022-12-14T09:44:31.451Z,-4.60
2022-12-14T09:47:19.498Z,-4.58
2022-12-14T09:49:53.750Z,-4.59
2022-12-14T09:52:32.077Z,-4.54
2022-12-14T09:55:04.046Z,-4.56
2022-12-14T09:57:41.067Z,-4.58
2022-12-14T10:00:19.776Z,-4.57
2022-12-14T10:03:07.132Z,-4.58
2022-12-14T10:06:03.808Z,-4.47
2022-12-14T10:08:40.632Z,-4.43
2022-12-14T10:11:23.311Z,-4.33
2022-12-14T10:14:15.599Z,-4.29
2022-12-14T10:17:06.115Z,-4.27
2022-12-14T10:19:47.562Z,-4.39
2022-12-14T10:22:20.950Z,-4.37
2022-12-14T10:24:52.209Z,-4.30
2022-12-14T10:27:26.461Z,-4.25
2022-12-14T10:30:04.807Z,-4.09
2022-12-14T10:32:35.775Z,-4.07
2022-12-14T10:35:28.519Z,-3.97
2022-12-14T10:38:07.973Z,-3.96
2022-12-14T10:40:35.656Z,-3.90
2022-12-14T10:43:02.772Z,-4.01
2022-12-14T10:45:49.095Z,-3.94
2022-12-14T10:48:45.182Z,-4.00
2022-12-14T10:51:19.942Z,-3.95
2022-12-14T10:53:53.949Z,-3.96
2022-12-14T10:56:33.259Z,-4.00
2022-12-14T10:59:30.129Z,-3.99
2022-12-14T11:02:04.562Z,-3.90
2022-12-14T11:04:34.812Z,-3.86
2022-12-14T11:07:08.526Z,-3.87
2022-12-14T11:09:37.362Z,-3.66
2022-12-14T11:12:12.665Z,-3.75
2022-12-14T11:14:51.809Z,-3.65
2022-12-14T11:17:38.852Z,-3.65
2022-12-14T11:20:26.155Z,-3.83
2022-12-14T11:23:08.452Z,-3.65
2022-12-14T11:25:47.215Z,-3.75
2022-12-14T11:28:36.448Z,-3.75
2022-12-14T11:31:08.414Z,-3.76
2022-12-14T11:34:03.088Z,-3.75
2022-12-14T11:36:40.869Z,-3.81
2022-12-14T11:39:13.942Z,-3.83
2022-12-14T11:41:50.993Z,-3.87
2022-12-14T11:44:27.298Z,-3.77
2022-12-14T11:47:01.249Z,-3.83
2022-12-14T11:49:32.932Z,-3.75
2022-12-14T11:52:06.051Z,-3.73
2022-12-14T11:54:35.667Z,-3.84
2022-12-14T11:57:13.000Z,-3.82
2022-12-14T11:59:51.061Z,-3.75
2022-12-14T12:02:23.452Z,-3.86
2022-12-14T12:05:04.977Z,-3.90
2022-12-14T12:07:35.010Z,-3.89
2022-12-14T12:10:28.145Z,-3.92
2022-12-14T12:13:00.764Z,-3.89
2022-12-14T12:15:41.688Z,-3.85
2022-12-14T12:18:34.123Z,-3.88
2022-12-14T12:21:09.771Z,-3.84
2022-12-14T12:23:49.062Z,-3.91
2022-12-14T12:26:39.962Z,-3.87
2022-12-14T12:29:30.001Z,-3.85
2022-12-14T12:32:03.214Z,-3.78
2022-12-14T12:34:43.913Z,-3.89
2022-12-14T12:37:28.031Z,-3.88
2022-12-14T12:40:07.684Z,-3.94
2022-12-14T12:42:44.832Z,-3.88
2022-12-14T12:45:21.358Z,-3.99
2022-12-14T12:48:00.646Z,-3.94
2022-12-14T12:50:36.305Z,-4.01
2022-12-14T12:53:10.725Z,-4.02
2022-12-14T12:55:43.839Z,-3.87
2022-12-14T12:58:21.054Z,-3.81
2022-12-14T13:00:54.584Z,-3.97
2022-12-14T13:03:27.562Z,-3.97
2022-12-14T13:06:12.344Z,-3.98
2022-12-14T13:08:43.228Z,-4.01
2022-12-14T13:11:27.740Z,-3.94
2022-12-14T13:14:05.822Z,-3.97
2022-12-14T13:16:37.656Z,-3.99
2022-12-14T13:22:28.481Z,-3.97
2022-12-14T13:25:00.001Z,-3.83
2022-12-14T13:27:27.267Z,-3.86
2022-12-14T13:30:11.137Z,-3.92
2022-12-14T13:33:00.198Z,-3.96
2022-12-14T13:35:56.987Z,-3.90
2022-12-14T13:38:43.148Z,-3.94
2022-12-14T13:41:25.262Z,-3.84
2022-12-14T13:44:20.143Z,-3.85
2022-12-14T13:46:59.290Z,-3.85
2022-12-14T13:49:27.956Z,-3.88
2022-12-14T13:51:56.270Z,-3.78
2022-12-14T13:54:33.113Z,-3.79
2022-12-14T13:57:08.387Z,-3.92
2022-12-14T13:59:44.508Z,-3.97
2022-12-14T14:02:32.305Z,-4.03
2022-12-14T14:05:14.607Z,-4.05
2022-12-14T14:08:00.522Z,-4.08
2022-12-14T14:10:39.206Z,-4.04
2022-12-14T14:13:29.681Z,-4.15
2022-12-14T14:18:58.787Z,-4.08
2022-12-14T14:22:05.972Z,-4.08
2022-12-14T14:25:25.088Z,-4.14
2022-12-14T14:27:54.280Z,-4.23
2022-12-14T14:30:41.774Z,-4.18
2022-12-14T14:33:46.527Z,-4.23
2022-12-14T14:36:25.925Z,-4.26
2022-12-14T14:38:54.790Z,-4.20
2022-12-14T14:41:27.982Z,-4.07
2022-12-14T14:44:02.975Z,-4.16
2022-12-14T14:46:41.266Z,-4.23
2022-12-14T14:49:24.281Z,-4.13
2022-12-14T14:51:51.498Z,-4.23
2022-12-14T14:55:06.565Z,-4.30
2022-12-14T14:57:33.030Z,-4.18
2022-12-14T15:00:02.574Z,-4.18
2022-12-14T15:02:33.376Z,-4.25
2022-12-14T15:07:49.794Z,-4.15
2022-12-14T15:10:33.058Z,-4.07
2022-12-14T15:13:06.051Z,-4.19
2022-12-14T15:15:38.990Z,-4.24
2022-12-14T15:18:27.625Z,-4.18
2022-12-14T15:21:02.018Z,-4.14
2022-12-14T15:23:43.147Z,-4.18
2022-12-14T15:26:17.398Z,-4.29
2022-12-14T15:28:53.839Z,-4.22
2022-12-14T15:31:33.321Z,-4.18
2022-12-14T15:34:02.725Z,-4.25
2022-12-14T15:36:37.347Z,-4.24
2022-12-14T15:39:04.817Z,-4.26
2022-12-14T15:41:33.595Z,-4.34
2022-12-14T15:44:03.667Z,-4.38
2022-12-14T15:46:35.493Z,-4.35
2022-12-14T15:49:18.384Z,-4.31
2022-12-14T15:51:49.620Z,-4.29
2022-12-14T15:54:22.614Z,-4.34
2022-12-14T15:56:58.024Z,-4.39
2022-12-14T15:59:33.320Z,-4.37
2022-12-14T16:02:25.100Z,-4.36
2022-12-14T16:04:54.108Z,-4.37
2022-12-14T16:07:28.244Z,-4.37
2022-12-14T16:10:01.019Z,-4.38
2022-12-14T16:12:44.484Z,-4.35
2022-12-14T16:15:27.910Z,-4.32
2022-12-14T16:18:02.222Z,-4.38
2022-12-14T16:20:33.676Z,-4.36
2022-12-14T16:23:03.933Z,-4.35
2022-12-14T16:25:33.880Z,-4.39
2022-12-14T16:28:21.560Z,-4.40
2022-12-14T16:31:23.452Z,-4.35
2022-12-14T16:34:18.739Z,-4.44
2022-12-14T16:37:08.113Z,-4.36
2022-12-14T16:39:43.806Z,-4.31
2022-12-14T16:42:20.130Z,-4.49
2022-12-14T16:44:48.823Z,-4.50
2022-12-14T16:47:26.114Z,-4.49
2022-12-14T16:49:59.601Z,-4.47
2022-12-14T16:52:30.423Z,-4.45
2022-12-14T16:55:20.151Z,-4.45
2022-12-14T16:57:56.089Z,-4.35
2022-12-14T17:00:33.434Z,-4.34
2022-12-14T17:03:03.769Z,-4.41
2022-12-14T17:05:37.928Z,-4.43
2022-12-14T17:08:06.750Z,-4.49
2022-12-14T17:10:34.567Z,-4.47
2022-12-14T17:13:02.459Z,-4.49
2022-12-14T17:15:32.978Z,-4.51
2022-12-14T17:18:03.810Z,-4.44
2022-12-14T17:20:39.194Z,-4.53
2022-12-14T17:23:12.404Z,-4.64
2022-12-14T17:25:43.267Z,-4.65
2022-12-14T17:28:23.878Z,-4.68
2022-12-14T17:30:51.753Z,-4.70
2022-12-14T17:33:18.876Z,-4.72
2022-12-14T17:35:45.954Z,-4.68
2022-12-14T17:38:15.068Z,-4.68
2022-12-14T17:40:43.450Z,-4.75
2022-12-14T17:43:18.133Z,-4.79
2022-12-14T17:45:45.373Z,-4.81
2022-12-14T17:48:16.895Z,-4.77
2022-12-14T17:50:47.869Z,-4.71
2022-12-14T17:53:17.987Z,-4.78
2022-12-14T17:55:45.107Z,-4.80
2022-12-14T17:58:12.473Z,-4.80
2022-12-14T18:00:59.111Z,-4.78
2022-12-14T18:03:27.189Z,-4.81
2022-12-14T18:05:54.897Z,-4.81
2022-12-14T18:08:23.575Z,-4.82
2022-12-14T18:10:54.663Z,-4.82
2022-12-14T18:13:21.779Z,-4.85
2022-12-14T18:15:54.254Z,-4.87
2022-12-14T18:18:24.145Z,-4.86
2022-12-14T18:20:56.523Z,-4.85
2022-12-14T18:23:23.966Z,-4.85
2022-12-14T18:25:56.519Z,-4.88
2022-12-14T18:28:24.004Z,-4.87
2022-12-14T18:30:55.341Z,-4.85
2022-12-14T18:33:25.750Z,-4.78
2022-12-14T18:35:54.864Z,-4.80
2022-12-14T18:38:22.993Z,-4.78
2022-12-14T18:40:53.106Z,-4.74
2022-12-14T18:43:23.742Z,-4.81
2022-12-14T18:45:53.592Z,-4.86
2022-12-14T18:48:21.580Z,-4.86
2022-12-14T18:50:50.404Z,-4.88
2022-12-14T18:53:20.145Z,-4.97
2022-12-14T18:55:47.816Z,-5.03
2022-12-14T18:58:18.033Z,-5.00
2022-12-14T19:00:46.445Z,-5.03
2022-12-14T19:03:15.271Z,-5.05
2022-12-14T19:05:43.530Z,-5.09
2022-12-14T19:08:11.394Z,-5.16
2022-12-14T19:10:41.688Z,-5.13
2022-12-14T19:13:14.584Z,-5.06
2022-12-14T19:15:41.836Z,-5.03
2022-12-14T19:18:11.981Z,-5.02
2022-12-14T19:20:39.574Z,-5.07
2022-12-14T19:23:06.732Z,-5.16
2022-12-14T19:25:33.883Z,-5.20
2022-12-14T19:30:52.245Z,-5.27
2022-12-14T19:33:20.735Z,-5.13
2022-12-14T19:35:48.673Z,-5.17
2022-12-14T19:38:16.466Z,-5.28
2022-12-14T19:40:46.358Z,-5.32
2022-12-14T19:43:14.039Z,-5.31
2022-12-14T19:45:41.237Z,-5.26
2022-12-14T19:48:12.961Z,-5.25
2022-12-14T19:50:40.519Z,-5.30
2022-12-14T19:53:07.664Z,-5.26
2022-12-14T19:55:35.702Z,-5.16
2022-12-14T19:58:03.086Z,-5.15
2022-12-14T20:00:30.944Z,-5.08
2022-12-14T20:02:58.200Z,-5.05
2022-12-14T20:05:25.479Z,-5.10
2022-12-14T20:07:52.620Z,-5.15
2022-12-14T20:10:19.731Z,-5.23
2022-12-14T20:12:46.938Z,-5.28
2022-12-14T20:15:14.298Z,-5.30
2022-12-14T20:17:41.528Z,-5.40
2022-12-14T20:20:09.289Z,-5.47
2022-12-14T20:22:36.750Z,-5.53
2022-12-14T20:25:04.000Z,-5.58
2022-12-14T20:27:34.824Z,-5.64
2022-12-14T20:30:06.969Z,-5.72
2022-12-14T20:32:34.492Z,-5.79
2022-12-14T20:35:01.665Z,-5.88
2022-12-14T20:37:28.881Z,-5.92
2022-12-14T20:39:56.137Z,-5.94
2022-12-14T20:42:23.485Z,-6.00
2022-12-14T20:44:50.691Z,-6.09
2022-12-14T20:47:17.940Z,-6.19
2022-12-14T20:49:45.097Z,-6.24
2022-12-14T20:52:12.362Z,-6.26
2022-12-14T20:54:39.531Z,-6.35
2022-12-14T20:57:06.854Z,-6.44
2022-12-14T20:59:34.199Z,-6.41
2022-12-14T21:02:01.576Z,-6.39
2022-12-14T21:04:28.914Z,-6.46
2022-12-14T21:06:56.133Z,-6.46
2022-12-14T21:09:23.308Z,-6.47
2022-12-14T21:12:12.259Z,-6.50
2022-12-14T21:14:46.901Z,-6.48
2022-12-14T21:17:15.316Z,-6.56
2022-12-14T21:19:42.567Z,-6.59
2022-12-14T21:22:14.115Z,-6.61
2022-12-14T21:27:30.448Z,-6.73
2022-12-14T21:29:57.732Z,-6.80
2022-12-14T21:32:24.933Z,-6.80
2022-12-14T21:34:52.529Z,-6.82
2022-12-14T21:37:20.520Z,-6.88
2022-12-14T21:39:54.123Z,-6.92
2022-12-14T21:42:24.186Z,-6.96
2022-12-14T21:44:52.836Z,-6.97
2022-12-14T21:47:29.901Z,-6.92
2022-12-14T21:49:57.723Z,-6.98
2022-12-14T21:52:27.106Z,-6.98
2022-12-14T21:54:54.601Z,-6.99
2022-12-14T21:57:42.766Z,-6.99
2022-12-14T22:00:11.034Z,-6.90
2022-12-14T22:02:41.997Z,-6.94
2022-12-14T22:05:10.061Z,-7.04
2022-12-14T22:07:37.230Z,-7.10
2022-12-14T22:10:04.860Z,-7.14
2022-12-14T22:12:32.016Z,-7.15
2022-12-14T22:14:59.093Z,-7.22
2022-12-14T22:17:26.345Z,-7.23
2022-12-14T22:19:55.086Z,-7.26
2022-12-14T22:22:22.778Z,-7.31
2022-12-14T22:24:51.284Z,-7.30
2022-12-14T22:27:20.026Z,-7.27
2022-12-14T22:29:47.214Z,-7.31
2022-12-14T22:32:14.902Z,-7.28
2022-12-14T22:34:42.174Z,-7.16
2022-12-14T22:37:09.374Z,-7.22
2022-12-14T22:39:36.476Z,-7.26
2022-12-14T22:42:04.002Z,-7.18
2022-12-14T22:44:33.946Z,-7.22
2022-12-14T22:47:01.046Z,-7.27
2022-12-14T22:49:28.208Z,-7.35
2022-12-14T22:51:56.621Z,-7.38
2022-12-14T22:54:26.204Z,-7.40
2022-12-14T22:57:02.703Z,-7.29
2022-12-14T22:59:41.887Z,-7.30
2022-12-14T23:02:09.589Z,-7.22
2022-12-14T23:04:38.166Z,-7.21
2022-12-14T23:07:06.071Z,-7.27
2022-12-14T23:09:52.322Z,-7.38
2022-12-14T23:12:38.682Z,-7.43
2022-12-14T23:15:25.200Z,-7.44
2022-12-14T23:18:20.092Z,-7.50
2022-12-14T23:21:06.111Z,-7.36
2022-12-14T23:23:51.734Z,-7.24
2022-12-14T23:26:37.174Z,-7.28
2022-12-14T23:29:23.055Z,-7.30
2022-12-14T23:32:08.605Z,-7.37
2022-12-14T23:34:54.304Z,-7.42
2022-12-14T23:37:39.993Z,-7.52
2022-12-14T23:40:26.113Z,-7.50
2022-12-14T23:43:11.831Z,-7.52
2022-12-14T23:45:58.727Z,-7.50
2022-12-14T23:48:44.563Z,-7.44
2022-12-14T23:51:30.378Z,-7.45
2022-12-14T23:54:16.097Z,-7.45
2022-12-14T23:57:02.098Z,-7.40
2022-12-14T23:59:49.351Z,-7.45
